Time,TemperatureF,DewpointF,PressureIn,WindDirection,WindDirectionDegrees,WindSpeedMPH,WindSpeedGustMPH,Humidity,HourlyPrecipIn,Conditions,Clouds,dailyrainin,SolarRadiationWatts/m^2,SoftwareType,DateUTC
2013-07-17 00:04:00,79.6,73.3,30.24,South,191,0.0,0.0,81,0.00,FEW,,0.00,0.0,WeatherDisplay:10.37,2013-07-17 05:04:00,
2013-07-17 00:09:00,79.4,73.1,30.24,South,191,0.0,0.0,81,0.00,FEW,,0.00,0.0,WeatherDisplay:10.37,2013-07-17 05:09:00,
2013-07-17 00:14:00,79.4,73.1,30.24,South,191,0.0,0.0,81,0.00,FEW,,0.00,0.0,WeatherDisplay:10.37,2013-07-17 05:14:00,
2013-07-17 00:19:00,79.2,73.2,30.24,South,191,0.0,0.0,82,0.00,FEW,,0.00,0.0,WeatherDisplay:10.37,2013-07-17 05:19:00,
2013-07-17 00:24:00,79.0,73.0,30.24,South,191,0.1,1.1,82,0.00,FEW,,0.00,0.0,WeatherDisplay:10.37,2013-07-17 05:24:00,
2013-07-17 00:29:00,79.0,73.4,30.24,South,191,0.0,0.0,83,0.00,FEW,,0.00,0.0,WeatherDisplay:10.37,2013-07-17 05:29:00,
2013-07-17 00:34:00,78.8,73.2,30.24,South,191,0.0,0.0,83,0.00,FEW,,0.00,0.0,WeatherDisplay:10.37,2013-07-17 05:34:00,
2013-07-17 00:39:00,78.6,73.0,30.24,South,191,0.0,0.0,83,0.00,FEW,,0.00,0.0,WeatherDisplay:10.37,2013-07-17 05:39:00,
2013-07-17 00:44:00,78.5,72.9,30.24,South,191,0.0,0.0,83,0.00,FEW,,0.00,0.0,WeatherDisplay:10.37,2013-07-17 05:44:00,
2013-07-17 00:49:00,78.3,72.7,30.24,South,191,0.0,0.0,83,0.00,FEW,,0.00,0.0,WeatherDisplay:10.37,2013-07-17 05:49:00,
2013-07-17 00:54:00,78.1,72.5,30.24,South,191,0.0,0.0,83,0.00,FEW,,0.00,0.0,WeatherDisplay:10.37,2013-07-17 05:54:00,
2013-07-17 00:59:00,78.1,72.5,30.24,South,191,0.0,0.0,83,0.00,FEW,,0.00,0.0,WeatherDisplay:10.37,2013-07-17 05:59:00,
2013-07-17 01:04:00,78.1,72.9,30.24,South,191,0.0,0.0,84,0.00,FEW,,0.00,0.0,WeatherDisplay:10.37,2013-07-17 06:04:00,
2013-07-17 01:09:00,78.1,72.9,30.24,South,191,0.0,0.0,84,0.00,FEW,,0.00,0.0,WeatherDisplay:10.37,2013-07-17 06:09:00,
2013-07-17 01:14:00,77.9,72.7,30.24,South,191,0.0,0.0,84,0.00,FEW,,0.00,0.0,WeatherDisplay:10.37,2013-07-17 06:14:00,
2013-07-17 01:19:00,77.9,72.7,30.24,South,191,0.0,0.0,84,0.00,FEW,,0.00,0.0,WeatherDisplay:10.37,2013-07-17 06:19:00,
2013-07-17 01:24:00,77.7,72.8,30.24,South,191,0.0,0.0,85,0.00,FEW,,0.00,0.0,WeatherDisplay:10.37,2013-07-17 06:24:00,
2013-07-17 01:29:00,77.6,72.7,30.24,South,191,0.0,0.0,85,0.00,FEW,,0.00,0.0,WeatherDisplay:10.37,2013-07-17 06:29:00,
2013-07-17 01:34:00,77.4,72.5,30.24,South,191,0.0,0.0,85,0.00,FEW,,0.00,0.0,WeatherDisplay:10.37,2013-07-17 06:34:00,
2013-07-17 01:39:00,77.4,72.5,30.24,South,191,0.0,0.0,85,0.00,FEW,,0.00,0.0,WeatherDisplay:10.37,2013-07-17 06:39:00,
2013-07-17 01:44:00,77.4,72.5,30.24,South,191,0.0,0.0,85,0.00,FEW,,0.00,0.0,WeatherDisplay:10.37,2013-07-17 06:44:00,
2013-07-17 01:49:00,77.4,72.9,30.24,South,191,0.0,0.0,86,0.00,FEW,,0.00,0.0,WeatherDisplay:10.37,2013-07-17 06:49:00,
2013-07-17 01:54:00,77.2,72.7,30.24,South,191,0.0,0.0,86,0.00,FEW,,0.00,0.0,WeatherDisplay:10.37,2013-07-17 06:54:00,
2013-07-17 01:59:00,77.2,72.7,30.24,South,191,0.0,0.0,86,0.00,FEW,,0.00,0.0,WeatherDisplay:10.37,2013-07-17 06:59:00,
2013-07-17 02:04:00,77.0,72.5,30.24,South,191,0.0,0.0,86,0.00,FEW,,0.00,0.0,WeatherDisplay:10.37,2013-07-17 07:04:00,
2013-07-17 02:09:00,77.0,72.5,30.24,South,191,0.0,0.0,86,0.00,FEW,,0.00,0.0,WeatherDisplay:10.37,2013-07-17 07:09:00,
2013-07-17 02:14:00,77.0,72.5,30.24,South,191,0.0,0.0,86,0.00,FEW,,0.00,0.0,WeatherDisplay:10.37,2013-07-17 07:14:00,
2013-07-17 02:19:00,77.0,72.5,30.24,South,191,0.0,0.0,86,0.00,FEW,,0.00,0.0,WeatherDisplay:10.37,2013-07-17 07:19:00,
2013-07-17 02:24:00,76.8,72.3,30.24,South,191,0.0,0.0,86,0.00,FEW,,0.00,0.0,WeatherDisplay:10.37,2013-07-17 07:24:00,
2013-07-17 02:29:00,76.8,72.3,30.24,South,191,0.0,0.0,86,0.00,FEW,,0.00,0.0,WeatherDisplay:10.37,2013-07-17 07:29:00,
2013-07-17 02:34:00,76.7,72.5,30.24,South,191,0.0,0.0,87,0.00,FEW,,0.00,0.0,WeatherDisplay:10.37,2013-07-17 07:34:00,
2013-07-17 02:39:00,76.7,72.5,30.24,South,191,0.0,0.0,87,0.00,FEW,,0.00,0.0,WeatherDisplay:10.37,2013-07-17 07:39:00,
2013-07-17 02:44:00,76.7,72.5,30.24,South,191,0.0,0.0,87,0.00,FEW,,0.00,0.0,WeatherDisplay:10.37,2013-07-17 07:44:00,
2013-07-17 02:49:00,76.8,72.6,30.24,South,191,0.0,0.0,87,0.00,FEW,,0.00,0.0,WeatherDisplay:10.37,2013-07-17 07:49:00,
2013-07-17 02:54:00,76.8,72.3,30.24,South,191,0.0,0.0,86,0.00,FEW,,0.00,0.0,WeatherDisplay:10.37,2013-07-17 07:54:00,
2013-07-17 02:59:00,76.8,72.3,30.24,South,191,0.0,0.0,86,0.00,FEW,,0.00,0.0,WeatherDisplay:10.37,2013-07-17 07:59:00,
2013-07-17 03:04:00,76.7,72.2,30.24,South,191,0.0,0.0,86,0.00,FEW,,0.00,0.0,WeatherDisplay:10.37,2013-07-17 08:04:00,
2013-07-17 03:09:00,76.7,72.2,30.24,South,191,0.0,0.0,86,0.00,FEW,,0.00,0.0,WeatherDisplay:10.37,2013-07-17 08:09:00,
2013-07-17 03:14:00,76.7,72.5,30.24,South,191,0.0,0.0,87,0.00,FEW,,0.00,0.0,WeatherDisplay:10.37,2013-07-17 08:14:00,
2013-07-17 03:19:00,76.8,72.6,30.24,South,191,0.0,0.0,87,0.00,FEW,,0.00,0.0,WeatherDisplay:10.37,2013-07-17 08:19:00,
2013-07-17 03:24:00,77.0,72.5,30.24,South,191,0.0,0.0,86,0.00,FEW,,0.00,0.0,WeatherDisplay:10.37,2013-07-17 08:24:00,
2013-07-17 03:29:00,77.0,72.5,30.24,South,191,0.0,0.0,86,0.00,FEW,,0.00,0.0,WeatherDisplay:10.37,2013-07-17 08:29:00,
2013-07-17 03:34:00,77.2,72.7,30.24,South,191,0.0,0.0,86,0.00,FEW,,0.00,0.0,WeatherDisplay:10.37,2013-07-17 08:34:00,
2013-07-17 03:39:00,77.2,72.7,30.24,South,191,0.0,0.0,86,0.00,FEW,,0.00,0.0,WeatherDisplay:10.37,2013-07-17 08:39:00,
2013-07-17 03:44:00,77.0,72.5,30.24,South,191,0.0,0.0,86,0.00,FEW,,0.00,0.0,WeatherDisplay:10.37,2013-07-17 08:44:00,
2013-07-17 03:49:00,76.8,72.3,30.24,South,191,0.0,0.0,86,0.00,FEW,,0.00,0.0,WeatherDisplay:10.37,2013-07-17 08:49:00,
2013-07-17 03:54:00,76.7,72.2,30.24,South,191,0.0,0.0,86,0.00,FEW,,0.00,0.0,WeatherDisplay:10.37,2013-07-17 08:54:00,
2013-07-17 03:59:00,76.7,72.2,30.23,South,191,0.0,0.0,86,0.00,FEW,,0.00,0.0,WeatherDisplay:10.37,2013-07-17 08:59:00,
2013-07-17 04:04:00,76.7,72.5,30.23,South,191,0.0,0.0,87,0.00,FEW,,0.00,0.0,WeatherDisplay:10.37,2013-07-17 09:04:00,
2013-07-17 04:09:00,76.7,72.5,30.23,South,191,0.0,0.0,87,0.00,FEW,,0.00,0.0,WeatherDisplay:10.37,2013-07-17 09:09:00,
2013-07-17 04:14:00,76.7,72.5,30.24,South,191,0.0,0.0,87,0.00,FEW,,0.00,0.0,WeatherDisplay:10.37,2013-07-17 09:14:00,
2013-07-17 04:19:00,76.8,72.6,30.24,South,191,0.0,0.0,87,0.00,FEW,,0.00,0.0,WeatherDisplay:10.37,2013-07-17 09:19:00,
2013-07-17 04:24:00,77.0,72.5,30.24,South,191,0.0,0.0,86,0.00,FEW,,0.00,0.0,WeatherDisplay:10.37,2013-07-17 09:24:00,
2013-07-17 04:29:00,77.0,72.5,30.24,South,191,0.0,0.0,86,0.00,FEW,,0.00,0.0,WeatherDisplay:10.37,2013-07-17 09:29:00,
2013-07-17 04:34:00,77.0,72.5,30.24,South,191,0.0,0.0,86,0.00,FEW,,0.00,0.0,WeatherDisplay:10.37,2013-07-17 09:34:00,
2013-07-17 04:39:00,77.0,72.5,30.24,South,191,0.0,0.0,86,0.00,FEW,,0.00,0.0,WeatherDisplay:10.37,2013-07-17 09:39:00,
2013-07-17 04:44:00,77.0,72.5,30.24,South,191,0.0,0.0,86,0.00,FEW,,0.00,0.0,WeatherDisplay:10.37,2013-07-17 09:44:00,
2013-07-17 04:49:00,77.0,72.5,30.24,South,191,0.0,0.0,86,0.00,FEW,,0.00,0.0,WeatherDisplay:10.37,2013-07-17 09:49:00,
2013-07-17 04:54:00,77.0,72.5,30.24,South,191,0.0,0.0,86,0.00,FEW,,0.00,0.0,WeatherDisplay:10.37,2013-07-17 09:54:00,
2013-07-17 04:59:00,77.0,72.5,30.24,South,191,0.0,0.0,86,0.00,FEW,,0.00,0.0,WeatherDisplay:10.37,2013-07-17 09:59:00,
2013-07-17 05:04:00,76.8,72.3,30.24,South,191,0.0,0.0,86,0.00,FEW,,0.00,0.0,WeatherDisplay:10.37,2013-07-17 10:04:00,
2013-07-17 05:09:00,76.8,72.3,30.24,South,191,0.0,0.0,86,0.00,FEW,,0.00,0.0,WeatherDisplay:10.37,2013-07-17 10:09:00,
2013-07-17 05:14:00,76.8,72.3,30.24,South,191,0.0,0.0,86,0.00,FEW,,0.00,0.0,WeatherDisplay:10.37,2013-07-17 10:14:00,
2013-07-17 05:19:00,76.8,72.3,30.24,South,191,0.0,0.0,86,0.00,FEW,,0.00,0.0,WeatherDisplay:10.37,2013-07-17 10:19:00,
2013-07-17 05:24:00,76.8,72.3,30.24,South,191,0.0,0.0,86,0.00,FEW,,0.00,0.0,WeatherDisplay:10.37,2013-07-17 10:24:00,
2013-07-17 05:29:00,76.8,72.3,30.24,South,191,0.0,0.0,86,0.00,FEW,,0.00,0.0,WeatherDisplay:10.37,2013-07-17 10:29:00,
2013-07-17 05:34:00,76.8,72.3,30.24,South,191,0.0,0.0,86,0.00,FEW,,0.00,0.0,WeatherDisplay:10.37,2013-07-17 10:34:00,
2013-07-17 05:39:00,76.8,72.3,30.24,South,191,0.0,0.0,86,0.00,FEW,,0.00,5.0,WeatherDisplay:10.37,2013-07-17 10:39:00,
2013-07-17 05:44:00,76.8,72.3,30.24,South,191,0.0,0.0,86,0.00,FEW,,0.00,7.0,WeatherDisplay:10.37,2013-07-17 10:44:00,
2013-07-17 05:49:00,76.8,72.3,30.24,South,191,0.0,0.0,86,0.00,FEW,,0.00,11.0,WeatherDisplay:10.37,2013-07-17 10:49:00,
2013-07-17 05:54:00,76.8,72.3,30.24,South,191,0.0,0.0,86,0.00,FEW,,0.00,12.0,WeatherDisplay:10.37,2013-07-17 10:54:00,
2013-07-17 05:59:00,76.7,72.2,30.24,South,191,0.0,0.0,86,0.00,FEW,,0.00,16.0,WeatherDisplay:10.37,2013-07-17 10:59:00,
2013-07-17 06:04:00,76.7,72.2,30.24,South,191,0.0,0.0,86,0.00,FEW,,0.00,18.0,WeatherDisplay:10.37,2013-07-17 11:04:00,
2013-07-17 06:09:00,76.7,72.2,30.24,South,191,0.0,0.0,86,0.00,FEW,,0.00,21.0,WeatherDisplay:10.37,2013-07-17 11:09:00,
2013-07-17 06:14:00,76.7,72.2,30.24,South,191,0.0,0.0,86,0.00,FEW,,0.00,23.0,WeatherDisplay:10.37,2013-07-17 11:14:00,
2013-07-17 06:19:00,76.7,72.2,30.24,South,191,0.0,0.0,86,0.00,FEW,,0.00,26.0,WeatherDisplay:10.37,2013-07-17 11:19:00,
2013-07-17 06:24:00,76.8,72.3,30.24,South,191,0.0,0.0,86,0.00,FEW,,0.00,28.0,WeatherDisplay:10.37,2013-07-17 11:24:00,
2013-07-17 06:29:00,77.0,72.5,30.24,South,191,0.0,0.0,86,0.00,FEW,,0.00,30.0,WeatherDisplay:10.37,2013-07-17 11:29:00,
2013-07-17 06:34:00,77.0,72.5,30.24,South,191,0.0,0.0,86,0.00,FEW,,0.00,33.0,WeatherDisplay:10.37,2013-07-17 11:34:00,
2013-07-17 06:39:00,77.2,72.7,30.24,South,191,0.0,0.0,86,0.00,FEW,,0.00,35.0,WeatherDisplay:10.37,2013-07-17 11:39:00,
2013-07-17 06:44:00,77.4,72.5,30.24,South,191,0.0,0.0,85,0.00,FEW,,0.00,39.0,WeatherDisplay:10.37,2013-07-17 11:44:00,
2013-07-17 06:49:00,77.6,72.7,30.24,South,191,0.0,0.0,85,0.00,FEW,,0.00,40.0,WeatherDisplay:10.37,2013-07-17 11:49:00,
2013-07-17 06:54:00,77.9,73.0,30.24,South,191,0.0,0.0,85,0.00,FEW,,0.00,130.0,WeatherDisplay:10.37,2013-07-17 11:54:00,
2013-07-17 07:00:00,78.1,72.9,30.24,South,191,0.0,0.0,84,0.00,FEW,,0.00,171.0,WeatherDisplay:10.37,2013-07-17 12:00:00,
2013-07-17 07:05:00,78.1,72.5,30.24,South,191,0.0,0.0,83,0.00,FEW,,0.00,183.0,WeatherDisplay:10.37,2013-07-17 12:05:00,
2013-07-17 07:10:00,78.3,72.7,30.24,South,191,0.0,0.0,83,0.00,FEW,,0.00,197.0,WeatherDisplay:10.37,2013-07-17 12:10:00,
2013-07-17 07:15:00,78.5,72.9,30.24,SSW,192,0.0,0.0,83,0.00,FEW,,0.00,211.0,WeatherDisplay:10.37,2013-07-17 12:15:00,
2013-07-17 07:20:00,78.6,73.0,30.24,SSW,192,0.0,0.0,83,0.00,FEW,,0.00,227.0,WeatherDisplay:10.37,2013-07-17 12:20:00,
2013-07-17 07:25:00,78.8,72.8,30.24,SSW,192,0.0,0.0,82,0.00,FEW,,0.00,239.0,WeatherDisplay:10.37,2013-07-17 12:25:00,
2013-07-17 07:30:00,79.0,72.7,30.24,SSW,192,0.0,0.0,81,0.00,FEW,,0.00,251.0,WeatherDisplay:10.37,2013-07-17 12:30:00,
2013-07-17 07:35:00,79.4,73.1,30.25,SSW,196,0.0,0.0,81,0.00,FEW,,0.00,264.0,WeatherDisplay:10.37,2013-07-17 12:35:00,
2013-07-17 07:40:00,79.8,73.1,30.25,SSW,195,0.0,0.0,80,0.00,FEW,,0.00,279.0,WeatherDisplay:10.37,2013-07-17 12:40:00,
2013-07-17 07:45:00,80.1,73.0,30.25,SSW,197,0.0,0.0,79,0.00,FEW,,0.00,283.0,WeatherDisplay:10.37,2013-07-17 12:45:00,
2013-07-17 07:50:00,80.3,72.8,30.25,SSW,203,0.0,0.0,78,0.00,FEW,,0.00,306.0,WeatherDisplay:10.37,2013-07-17 12:50:00,
2013-07-17 07:55:00,80.5,73.0,30.25,SSW,203,0.0,0.0,78,0.00,FEW,,0.00,327.0,WeatherDisplay:10.37,2013-07-17 12:55:00,
2013-07-17 08:00:00,80.7,72.8,30.25,SSW,199,0.0,1.2,77,0.00,FEW,,0.00,345.0,WeatherDisplay:10.37,2013-07-17 13:00:00,
2013-07-17 08:05:00,81.1,73.2,30.25,SSW,200,0.1,1.1,77,0.00,FEW,,0.00,373.0,WeatherDisplay:10.37,2013-07-17 13:05:00,
2013-07-17 08:10:00,81.4,73.1,30.25,WNW,300,0.0,5.8,76,0.00,FEW,,0.00,410.0,WeatherDisplay:10.37,2013-07-17 13:10:00,
2013-07-17 08:15:00,81.8,73.1,30.25,SSE,160,0.0,1.2,75,0.00,FEW,,0.00,459.0,WeatherDisplay:10.37,2013-07-17 13:15:00,
2013-07-17 08:20:00,82.0,73.3,30.25,SSE,161,0.0,1.2,75,0.00,FEW,,0.00,475.0,WeatherDisplay:10.37,2013-07-17 13:20:00,
2013-07-17 08:25:00,82.4,73.3,30.25,South,182,0.0,1.2,74,0.00,FEW,,0.00,383.0,WeatherDisplay:10.37,2013-07-17 13:25:00,
2013-07-17 08:30:00,82.4,73.3,30.25,SE,136,0.0,1.2,74,0.00,FEW,,0.00,441.0,WeatherDisplay:10.37,2013-07-17 13:30:00,
2013-07-17 08:35:00,82.6,73.5,30.25,NNE,23,0.1,1.1,74,0.00,CLR,,0.00,454.0,WeatherDisplay:10.37,2013-07-17 13:35:00,
2013-07-17 08:40:00,82.8,73.3,30.25,NW,322,0.1,1.2,73,0.00,CLR,,0.00,473.0,WeatherDisplay:10.37,2013-07-17 13:40:00,
2013-07-17 08:45:00,83.0,73.4,30.25,SSW,201,0.0,1.2,73,0.00,CLR,,0.00,533.0,WeatherDisplay:10.37,2013-07-17 13:45:00,
2013-07-17 08:50:00,83.4,73.8,30.26,South,178,0.0,0.0,73,0.00,FEW,,0.00,264.0,WeatherDisplay:10.37,2013-07-17 13:50:00,
2013-07-17 08:55:00,83.6,73.6,30.26,South,183,0.0,1.2,72,0.00,SCT,,0.00,563.0,WeatherDisplay:10.37,2013-07-17 13:55:00,
2013-07-17 09:00:00,83.8,73.8,30.26,South,184,0.0,1.1,72,0.00,CLR,,0.00,585.0,WeatherDisplay:10.37,2013-07-17 14:00:00,
2013-07-17 09:05:00,84.1,73.7,30.26,SSW,194,0.0,1.1,71,0.00,SCT,,0.00,355.0,WeatherDisplay:10.37,2013-07-17 14:05:00,
2013-07-17 09:10:00,84.5,74.1,30.26,SSW,196,0.0,0.0,71,0.00,SCT,,0.00,355.0,WeatherDisplay:10.37,2013-07-17 14:10:00,
2013-07-17 09:15:00,84.9,74.0,30.26,SSW,198,0.0,1.2,70,0.00,FEW,,0.00,557.0,WeatherDisplay:10.37,2013-07-17 14:15:00,
2013-07-17 09:20:00,84.7,73.8,30.26,SSW,198,0.0,0.0,70,0.00,FEW,,0.00,559.0,WeatherDisplay:10.37,2013-07-17 14:20:00,
2013-07-17 09:25:00,84.9,73.6,30.26,SSW,202,0.0,0.0,69,0.00,FEW,,0.00,571.0,WeatherDisplay:10.37,2013-07-17 14:25:00,
2013-07-17 09:30:00,84.9,74.0,30.25,SSW,207,0.1,1.1,70,0.00,FEW,,0.00,587.0,WeatherDisplay:10.37,2013-07-17 14:30:00,
2013-07-17 09:35:00,84.9,73.6,30.25,West,267,0.0,1.1,69,0.00,FEW,,0.00,601.0,WeatherDisplay:10.37,2013-07-17 14:35:00,
2013-07-17 09:40:00,85.1,73.8,30.25,NNW,327,0.0,1.2,69,0.00,FEW,,0.00,612.0,WeatherDisplay:10.37,2013-07-17 14:40:00,
2013-07-17 09:45:00,85.5,74.2,30.25,NW,323,0.0,0.0,69,0.00,FEW,,0.00,621.0,WeatherDisplay:10.37,2013-07-17 14:45:00,
2013-07-17 09:50:00,86.1,74.3,30.25,ESE,113,0.0,1.2,68,0.00,FEW,,0.00,631.0,WeatherDisplay:10.37,2013-07-17 14:50:00,
2013-07-17 09:55:00,86.5,73.8,30.25,NW,320,0.1,1.2,66,0.00,FEW,,0.00,645.0,WeatherDisplay:10.37,2013-07-17 14:55:00,
2013-07-17 10:00:00,87.0,73.8,30.25,SSW,195,0.1,1.1,65,0.00,FEW,,0.00,656.0,WeatherDisplay:10.37,2013-07-17 15:00:00,
2013-07-17 10:05:00,87.0,74.3,30.25,NW,326,0.0,0.0,66,0.00,FEW,,0.00,664.0,WeatherDisplay:10.37,2013-07-17 15:05:00,
2013-07-17 10:10:00,87.2,74.0,30.25,NW,315,0.0,0.0,65,0.00,FEW,,0.00,680.0,WeatherDisplay:10.37,2013-07-17 15:10:00,
2013-07-17 10:15:00,87.0,73.8,30.25,South,189,0.0,0.0,65,0.00,FEW,,0.00,693.0,WeatherDisplay:10.37,2013-07-17 15:15:00,
2013-07-17 10:20:00,87.4,73.7,30.25,SSW,213,0.1,1.1,64,0.00,FEW,,0.00,698.0,WeatherDisplay:10.37,2013-07-17 15:20:00,
2013-07-17 10:25:00,87.6,73.4,30.25,South,183,0.0,0.0,63,0.00,FEW,,0.00,707.0,WeatherDisplay:10.37,2013-07-17 15:25:00,
2013-07-17 10:30:00,88.0,74.8,30.25,South,182,0.0,0.0,65,0.00,FEW,,0.00,719.0,WeatherDisplay:10.37,2013-07-17 15:30:00,
2013-07-17 10:35:00,88.4,74.2,30.24,South,182,0.0,1.1,63,0.00,FEW,,0.00,729.0,WeatherDisplay:10.37,2013-07-17 15:35:00,
2013-07-17 10:40:00,88.8,74.1,30.24,WNW,284,0.0,1.2,62,0.00,FEW,,0.00,740.0,WeatherDisplay:10.37,2013-07-17 15:40:00,
2013-07-17 10:45:00,89.3,73.6,30.24,South,187,0.0,1.1,60,0.00,FEW,,0.00,745.0,WeatherDisplay:10.37,2013-07-17 15:45:00,
2013-07-17 10:50:00,89.3,73.6,30.24,SSW,209,0.0,0.0,60,0.00,FEW,,0.00,765.0,WeatherDisplay:10.37,2013-07-17 15:50:00,
2013-07-17 10:55:00,89.0,72.3,30.24,SSE,164,0.0,0.0,58,0.00,FEW,,0.00,768.0,WeatherDisplay:10.37,2013-07-17 15:55:00,
2013-07-17 11:00:00,89.0,72.3,30.24,SSE,167,0.1,1.2,58,0.00,FEW,,0.00,780.0,WeatherDisplay:10.37,2013-07-17 16:00:00,
2013-07-17 11:05:00,89.9,72.6,30.24,SSE,167,0.1,1.2,57,0.00,SCT,,0.00,758.0,WeatherDisplay:10.37,2013-07-17 16:05:00,
2013-07-17 11:10:00,89.0,71.3,30.24,SW,218,0.6,3.5,56,0.00,SCT,,0.00,803.0,WeatherDisplay:10.37,2013-07-17 16:10:00,
2013-07-17 11:15:00,89.7,72.4,30.24,SW,218,0.0,1.2,57,0.00,FEW,,0.00,819.0,WeatherDisplay:10.37,2013-07-17 16:15:00,
2013-07-17 11:20:00,89.9,72.1,30.24,South,171,0.2,2.3,56,0.00,FEW,,0.00,840.0,WeatherDisplay:10.37,2013-07-17 16:20:00,
2013-07-17 11:25:00,89.9,72.6,30.24,South,184,0.0,0.0,57,0.00,FEW,,0.00,893.0,WeatherDisplay:10.37,2013-07-17 16:25:00,
2013-07-17 11:30:00,90.5,72.1,30.24,NW,309,0.0,1.2,55,0.00,FEW,,0.00,921.0,WeatherDisplay:10.37,2013-07-17 16:30:00,
2013-07-17 11:35:00,90.5,72.1,30.24,West,261,0.5,2.3,55,0.00,CLR,,0.00,935.0,WeatherDisplay:10.37,2013-07-17 16:35:00,
2013-07-17 11:40:00,91.6,71.5,30.24,NW,315,0.0,3.5,52,0.00,CLR,,0.00,956.0,WeatherDisplay:10.37,2013-07-17 16:40:00,
2013-07-17 11:45:00,91.6,72.0,30.24,WNW,300,1.4,5.5,53,0.00,CLR,,0.00,998.0,WeatherDisplay:10.37,2013-07-17 16:45:00,
2013-07-17 11:50:00,91.4,73.0,30.24,WSW,249,0.1,1.2,55,0.00,CLR,,0.00,1025.0,WeatherDisplay:10.37,2013-07-17 16:50:00,
2013-07-17 11:55:00,91.6,71.5,30.24,West,269,0.0,0.0,52,0.00,FEW,,0.00,267.0,WeatherDisplay:10.37,2013-07-17 16:55:00,
2013-07-17 12:00:00,91.2,70.5,30.24,SW,216,0.0,0.0,51,0.00,BKN,,0.00,320.0,WeatherDisplay:10.37,2013-07-17 17:00:00,
2013-07-17 12:05:00,91.2,72.8,30.24,SW,217,0.0,0.0,55,0.00,BKN,,0.00,954.0,WeatherDisplay:10.37,2013-07-17 17:05:00,
2013-07-17 12:10:00,91.2,71.7,30.24,SW,216,0.0,1.2,53,0.00,FEW,,0.00,916.0,WeatherDisplay:10.37,2013-07-17 17:10:00,
2013-07-17 12:15:00,92.3,72.7,30.23,SW,223,0.5,3.5,53,0.00,FEW,,0.00,909.0,WeatherDisplay:10.37,2013-07-17 17:15:00,
2013-07-17 12:20:00,92.3,73.2,30.23,SW,228,0.0,0.0,54,0.00,FEW,,0.00,962.0,WeatherDisplay:10.37,2013-07-17 17:20:00,
2013-07-17 12:25:00,93.2,71.8,30.23,SSW,196,0.0,1.2,50,0.00,SCT,,0.00,227.0,WeatherDisplay:10.37,2013-07-17 17:25:00,
2013-07-17 12:39:00,91.2,72.2,30.23,SW,233,0.0,5.5,54,0.00,BKN,,0.00,290.0,WeatherDisplay:10.37,2013-07-17 17:39:00,
2013-07-17 12:44:00,91.4,73.0,30.23,SW,233,0.0,0.0,55,0.00,BKN,,0.00,353.0,WeatherDisplay:10.37,2013-07-17 17:44:00,
2013-07-17 12:49:00,91.2,72.2,30.23,West,281,0.2,1.1,54,0.00,BKN,,0.00,299.0,WeatherDisplay:10.37,2013-07-17 17:49:00,
2013-07-17 12:54:00,91.0,70.9,30.23,SW,236,0.1,1.1,52,0.00,BKN,,0.00,912.0,WeatherDisplay:10.37,2013-07-17 17:54:00,
2013-07-17 12:59:00,91.2,71.7,30.23,WSW,239,0.3,5.8,53,0.00,SCT,,0.00,888.0,WeatherDisplay:10.37,2013-07-17 17:59:00,
2013-07-17 13:04:00,91.4,71.3,30.23,South,184,1.2,4.4,52,0.00,SCT,,0.00,893.0,WeatherDisplay:10.37,2013-07-17 18:04:00,
2013-07-17 13:09:00,92.1,73.1,30.23,WNW,296,0.4,4.6,54,0.00,SCT,,0.00,891.0,WeatherDisplay:10.37,2013-07-17 18:09:00,
2013-07-17 13:14:00,91.6,71.5,30.22,West,277,0.0,0.0,52,0.00,SCT,,0.00,900.0,WeatherDisplay:10.37,2013-07-17 18:14:00,
2013-07-17 13:19:00,91.8,73.3,30.22,West,267,0.5,3.5,55,0.00,FEW,,0.00,921.0,WeatherDisplay:10.37,2013-07-17 18:19:00,
2013-07-17 13:24:00,91.4,71.9,30.22,South,183,0.0,1.2,53,0.00,FEW,,0.00,911.0,WeatherDisplay:10.37,2013-07-17 18:24:00,
2013-07-17 13:29:00,91.4,73.0,30.22,WSW,251,0.1,2.2,55,0.00,FEW,,0.00,893.0,WeatherDisplay:10.37,2013-07-17 18:29:00,
2013-07-17 13:34:00,91.8,72.2,30.22,West,268,0.3,4.6,53,0.00,FEW,,0.00,900.0,WeatherDisplay:10.37,2013-07-17 18:34:00,
2013-07-17 13:39:00,92.3,71.6,30.22,WSW,252,0.3,2.2,51,0.00,SCT,,0.00,898.0,WeatherDisplay:10.37,2013-07-17 18:39:00,
2013-07-17 13:44:00,92.1,70.8,30.22,SSW,208,0.9,3.5,50,0.00,FEW,,0.00,944.0,WeatherDisplay:10.37,2013-07-17 18:44:00,
2013-07-17 13:49:00,92.3,72.7,30.22,SSW,196,0.4,5.5,53,0.00,BKN,,0.00,902.0,WeatherDisplay:10.37,2013-07-17 18:49:00,
2013-07-17 13:54:00,93.4,71.4,30.22,SW,219,0.0,1.1,49,0.00,FEW,,0.00,930.0,WeatherDisplay:10.37,2013-07-17 18:54:00,
2013-07-17 13:59:00,93.4,71.4,30.22,SSE,164,0.0,1.2,49,0.00,FEW,,0.00,940.0,WeatherDisplay:10.37,2013-07-17 18:59:00,
2013-07-17 14:04:00,93.4,71.4,30.22,SSW,201,0.0,1.2,49,0.00,FEW,,0.00,904.0,WeatherDisplay:10.37,2013-07-17 19:04:00,
2013-07-17 14:09:00,93.4,72.0,30.22,West,262,0.0,1.1,50,0.00,FEW,,0.00,972.0,WeatherDisplay:10.37,2013-07-17 19:09:00,
2013-07-17 14:14:00,93.2,70.6,30.21,SW,225,3.5,6.9,48,0.00,FEW,,0.00,895.0,WeatherDisplay:10.37,2013-07-17 19:14:00,
2013-07-17 14:19:00,92.7,71.3,30.21,WSW,243,1.0,4.6,50,0.00,FEW,,0.00,902.0,WeatherDisplay:10.37,2013-07-17 19:19:00,
2013-07-17 14:24:00,92.7,71.9,30.21,South,186,0.7,3.5,51,0.00,FEW,,0.00,921.0,WeatherDisplay:10.37,2013-07-17 19:24:00,
2013-07-17 14:29:00,92.7,71.9,30.21,South,180,0.0,0.0,51,0.00,SCT,,0.00,181.0,WeatherDisplay:10.37,2013-07-17 19:29:00,
2013-07-17 14:34:00,92.1,71.9,30.20,NNW,348,0.1,6.9,52,0.00,BKN,,0.00,930.0,WeatherDisplay:10.37,2013-07-17 19:34:00,
2013-07-17 14:39:00,92.1,72.5,30.20,SE,142,0.8,4.6,53,0.00,SCT,,0.00,942.0,WeatherDisplay:10.37,2013-07-17 19:39:00,
2013-07-17 14:44:00,92.5,72.3,30.20,SW,218,0.0,1.2,52,0.00,CLR,,0.00,960.0,WeatherDisplay:10.37,2013-07-17 19:44:00,
2013-07-17 14:49:00,92.9,72.7,30.20,South,176,0.0,1.2,52,0.00,CLR,,0.00,898.0,WeatherDisplay:10.37,2013-07-17 19:49:00,
2013-07-17 14:54:00,92.5,72.9,30.20,South,174,0.1,4.6,53,0.00,FEW,,0.00,912.0,WeatherDisplay:10.37,2013-07-17 19:54:00,
2013-07-17 14:59:00,92.5,72.3,30.20,South,191,0.6,4.6,52,0.00,CLR,,0.00,849.0,WeatherDisplay:10.37,2013-07-17 19:59:00,
2013-07-17 15:04:00,93.2,73.0,30.20,WNW,284,1.3,6.9,52,0.00,FEW,,0.00,888.0,WeatherDisplay:10.37,2013-07-17 20:04:00,
2013-07-17 15:09:00,92.9,70.3,30.20,WNW,288,1.4,5.8,48,0.00,FEW,,0.00,840.0,WeatherDisplay:10.37,2013-07-17 20:09:00,
2013-07-17 15:14:00,93.2,71.2,30.19,WNW,287,0.0,3.5,49,0.00,CLR,,0.00,809.0,WeatherDisplay:10.37,2013-07-17 20:14:00,
2013-07-17 15:19:00,94.0,71.9,30.19,West,279,0.0,0.0,49,0.00,FEW,,0.00,803.0,WeatherDisplay:10.37,2013-07-17 20:19:00,
2013-07-17 15:24:00,93.8,71.1,30.19,SSE,164,0.3,2.3,48,0.00,FEW,,0.00,814.0,WeatherDisplay:10.37,2013-07-17 20:24:00,
2013-07-17 15:29:00,93.6,71.0,30.19,West,267,1.7,6.9,48,0.00,FEW,,0.00,123.0,WeatherDisplay:10.37,2013-07-17 20:29:00,
2013-07-17 15:34:00,92.9,72.7,30.19,West,265,0.0,1.1,52,0.00,BKN,,0.00,209.0,WeatherDisplay:10.37,2013-07-17 20:34:00,
2013-07-17 15:39:00,92.3,72.1,30.19,SW,232,0.0,1.1,52,0.00,BKN,,0.00,773.0,WeatherDisplay:10.37,2013-07-17 20:39:00,
2013-07-17 15:44:00,92.9,70.9,30.19,South,180,0.0,1.1,49,0.00,FEW,,0.00,735.0,WeatherDisplay:10.37,2013-07-17 20:44:00,
2013-07-17 15:49:00,93.4,73.1,30.19,West,267,0.5,4.6,52,0.00,FEW,,0.00,744.0,WeatherDisplay:10.37,2013-07-17 20:49:00,
2013-07-17 15:54:00,93.6,71.6,30.19,West,260,0.0,0.0,49,0.00,FEW,,0.00,684.0,WeatherDisplay:10.37,2013-07-17 20:54:00,
2013-07-17 15:59:00,93.4,72.0,30.19,West,265,2.0,8.1,50,0.00,BKN,,0.00,202.0,WeatherDisplay:10.37,2013-07-17 20:59:00,
2013-07-17 16:04:00,92.5,72.9,30.19,West,281,0.1,1.2,53,0.00,BKN,,0.00,153.0,WeatherDisplay:10.37,2013-07-17 21:04:00,
2013-07-17 16:10:00,92.1,73.1,30.19,West,281,0.0,1.2,54,0.00,BKN,,0.00,185.0,WeatherDisplay:10.37,2013-07-17 21:10:00,
2013-07-17 16:15:00,91.8,72.2,30.19,West,277,0.0,0.0,53,0.00,BKN,,0.00,770.0,WeatherDisplay:10.37,2013-07-17 21:15:00,
2013-07-17 16:20:00,92.7,71.9,30.19,WNW,302,0.2,2.3,51,0.00,FEW,,0.00,696.0,WeatherDisplay:10.37,2013-07-17 21:20:00,
2013-07-17 16:25:00,92.5,72.3,30.19,SW,234,0.3,2.3,52,0.00,BKN,,0.00,141.0,WeatherDisplay:10.37,2013-07-17 21:25:00,
2013-07-17 16:30:00,91.8,71.7,30.18,SSE,162,0.1,4.6,52,0.00,BKN,,0.00,301.0,WeatherDisplay:10.37,2013-07-17 21:30:00,
2013-07-17 16:35:00,91.4,71.3,30.18,South,190,0.1,4.6,52,0.00,SCT,,0.00,652.0,WeatherDisplay:10.37,2013-07-17 21:35:00,
2013-07-17 16:40:00,91.8,71.7,30.18,South,191,0.1,1.2,52,0.00,CLR,,0.00,606.0,WeatherDisplay:10.37,2013-07-17 21:40:00,
2013-07-17 16:45:00,92.5,71.7,30.18,South,191,0.1,1.2,51,0.00,FEW,,0.00,594.0,WeatherDisplay:10.37,2013-07-17 21:45:00,
2013-07-17 16:50:00,92.7,71.9,30.18,South,178,0.1,1.2,51,0.00,FEW,,0.00,568.0,WeatherDisplay:10.37,2013-07-17 21:50:00,
2013-07-17 16:55:00,92.9,72.1,30.18,West,280,1.3,6.6,51,0.00,FEW,,0.00,550.0,WeatherDisplay:10.37,2013-07-17 21:55:00,
2013-07-17 17:00:00,93.2,71.2,30.18,WSW,252,0.1,3.5,49,0.00,FEW,,0.00,555.0,WeatherDisplay:10.37,2013-07-17 22:00:00,
2013-07-17 17:05:00,93.8,71.7,30.18,WSW,252,0.1,1.2,49,0.00,FEW,,0.00,545.0,WeatherDisplay:10.37,2013-07-17 22:05:00,
2013-07-17 17:10:00,93.6,71.0,30.18,West,279,0.9,4.6,48,0.00,FEW,,0.00,524.0,WeatherDisplay:10.37,2013-07-17 22:10:00,
2013-07-17 17:15:00,93.6,71.6,30.18,SSE,154,1.6,10.4,49,0.00,FEW,,0.00,510.0,WeatherDisplay:10.37,2013-07-17 22:15:00,
2013-07-17 17:20:00,92.9,70.9,30.18,SSW,210,0.8,3.3,49,0.00,FEW,,0.00,489.0,WeatherDisplay:10.37,2013-07-17 22:20:00,
2013-07-17 17:25:00,93.2,71.8,30.18,WSW,255,0.1,1.2,50,0.00,FEW,,0.00,448.0,WeatherDisplay:10.37,2013-07-17 22:25:00,
2013-07-17 17:30:00,93.4,71.4,30.17,WSW,241,0.1,1.2,49,0.00,FEW,,0.00,443.0,WeatherDisplay:10.37,2013-07-17 22:30:00,
2013-07-17 17:35:00,93.6,71.6,30.17,SW,228,0.3,1.1,49,0.00,FEW,,0.00,424.0,WeatherDisplay:10.37,2013-07-17 22:35:00,
2013-07-17 17:40:00,93.6,72.2,30.17,South,182,0.0,0.0,50,0.00,FEW,,0.00,406.0,WeatherDisplay:10.37,2013-07-17 22:40:00,
2013-07-17 17:45:00,92.9,70.9,30.17,WSW,239,0.0,1.2,49,0.00,FEW,,0.00,392.0,WeatherDisplay:10.37,2013-07-17 22:45:00,
2013-07-17 17:50:00,92.9,71.5,30.17,South,191,0.1,1.2,50,0.00,FEW,,0.00,380.0,WeatherDisplay:10.37,2013-07-17 22:50:00,
2013-07-17 17:55:00,93.2,71.8,30.17,West,281,0.1,1.2,50,0.00,FEW,,0.00,366.0,WeatherDisplay:10.37,2013-07-17 22:55:00,
2013-07-17 18:00:00,93.2,71.2,30.17,WNW,288,0.1,4.6,49,0.00,FEW,,0.00,345.0,WeatherDisplay:10.37,2013-07-17 23:00:00,
2013-07-17 18:05:00,92.9,70.9,30.17,West,275,0.2,1.2,49,0.00,FEW,,0.00,334.0,WeatherDisplay:10.37,2013-07-17 23:05:00,
2013-07-17 18:10:00,92.7,70.7,30.17,WSW,239,0.0,1.2,49,0.00,FEW,,0.00,320.0,WeatherDisplay:10.37,2013-07-17 23:10:00,
2013-07-17 18:15:00,92.7,71.9,30.16,West,265,0.1,1.2,51,0.00,FEW,,0.00,302.0,WeatherDisplay:10.37,2013-07-17 23:15:00,
2013-07-17 18:20:00,92.7,71.9,30.16,West,274,0.1,1.2,51,0.00,FEW,,0.00,292.0,WeatherDisplay:10.37,2013-07-17 23:20:00,
2013-07-17 18:25:00,92.5,71.7,30.16,West,279,0.7,3.5,51,0.00,FEW,,0.00,279.0,WeatherDisplay:10.37,2013-07-17 23:25:00,
2013-07-17 18:30:00,92.3,71.6,30.16,WNW,300,0.0,0.0,51,0.00,FEW,,0.00,251.0,WeatherDisplay:10.37,2013-07-17 23:30:00,
2013-07-17 18:35:00,92.3,71.6,30.16,WSW,248,0.0,1.2,51,0.00,FEW,,0.00,171.0,WeatherDisplay:10.37,2013-07-17 23:35:00,
2013-07-17 18:40:00,91.8,71.7,30.16,WNW,287,0.1,1.1,52,0.00,FEW,,0.00,216.0,WeatherDisplay:10.37,2013-07-17 23:40:00,
2013-07-17 18:45:00,92.1,71.9,30.15,WNW,287,0.0,0.0,52,0.00,FEW,,0.00,225.0,WeatherDisplay:10.37,2013-07-17 23:45:00,
2013-07-17 18:50:00,92.1,71.4,30.15,WNW,287,0.0,0.0,51,0.00,FEW,,0.00,209.0,WeatherDisplay:10.37,2013-07-17 23:50:00,
2013-07-17 18:55:00,92.1,71.4,30.15,West,261,0.0,0.0,51,0.00,FEW,,0.00,199.0,WeatherDisplay:10.37,2013-07-17 23:55:00,
2013-07-17 19:00:00,91.8,71.7,30.15,West,265,0.0,0.0,52,0.00,FEW,,0.00,185.0,WeatherDisplay:10.37,2013-07-18 00:00:00,
2013-07-17 19:05:00,91.8,72.8,30.15,West,260,0.0,0.0,54,0.00,FEW,,0.00,174.0,WeatherDisplay:10.37,2013-07-18 00:05:00,
2013-07-17 19:10:00,91.4,71.9,30.15,West,259,0.0,1.1,53,0.00,FEW,,0.00,156.0,WeatherDisplay:10.37,2013-07-18 00:10:00,
2013-07-17 19:15:00,91.2,72.8,30.15,West,259,0.0,0.0,55,0.00,FEW,,0.00,148.0,WeatherDisplay:10.37,2013-07-18 00:15:00,
2013-07-17 19:20:00,90.7,72.3,30.15,WSW,253,0.0,0.0,55,0.00,FEW,,0.00,134.0,WeatherDisplay:10.37,2013-07-18 00:20:00,
2013-07-17 19:25:00,90.5,72.7,30.15,WSW,253,0.0,0.0,56,0.00,FEW,,0.00,51.0,WeatherDisplay:10.37,2013-07-18 00:25:00,
2013-07-17 19:30:00,90.3,72.5,30.14,WSW,253,0.0,0.0,56,0.00,FEW,,0.00,32.0,WeatherDisplay:10.37,2013-07-18 00:30:00,
2013-07-17 19:35:00,89.7,73.0,30.14,WSW,253,0.0,0.0,58,0.00,FEW,,0.00,30.0,WeatherDisplay:10.37,2013-07-18 00:35:00,
2013-07-17 19:40:00,89.0,71.8,30.14,WSW,253,0.0,0.0,57,0.00,FEW,,0.00,28.0,WeatherDisplay:10.37,2013-07-18 00:40:00,
2013-07-17 19:45:00,88.6,72.4,30.14,WSW,253,0.0,0.0,59,0.00,FEW,,0.00,25.0,WeatherDisplay:10.37,2013-07-18 00:45:00,
2013-07-17 19:50:00,88.2,72.1,30.14,WSW,253,0.0,0.0,59,0.00,FEW,,0.00,23.0,WeatherDisplay:10.37,2013-07-18 00:50:00,
2013-07-17 19:55:00,88.0,71.9,30.14,WSW,253,0.0,0.0,59,0.00,FEW,,0.00,21.0,WeatherDisplay:10.37,2013-07-18 00:55:00,
2013-07-17 20:00:00,87.8,72.2,30.15,WSW,253,0.0,0.0,60,0.00,FEW,,0.00,19.0,WeatherDisplay:10.37,2013-07-18 01:00:00,
2013-07-17 20:05:00,87.4,72.3,30.15,WSW,253,0.0,0.0,61,0.00,FEW,,0.00,18.0,WeatherDisplay:10.37,2013-07-18 01:05:00,
2013-07-17 20:10:00,87.2,72.1,30.15,WSW,253,0.0,0.0,61,0.00,FEW,,0.00,16.0,WeatherDisplay:10.37,2013-07-18 01:10:00,
2013-07-17 20:15:00,87.0,72.4,30.14,WSW,253,0.0,0.0,62,0.00,FEW,,0.00,12.0,WeatherDisplay:10.37,2013-07-18 01:15:00,
2013-07-17 20:20:00,86.5,72.4,30.14,WSW,253,0.0,0.0,63,0.00,FEW,,0.00,11.0,WeatherDisplay:10.37,2013-07-18 01:20:00,
2013-07-17 20:25:00,86.3,72.7,30.14,WSW,253,0.0,0.0,64,0.00,FEW,,0.00,9.0,WeatherDisplay:10.37,2013-07-18 01:25:00,
2013-07-17 20:30:00,86.1,72.5,30.14,WSW,253,0.0,0.0,64,0.00,FEW,,0.00,7.0,WeatherDisplay:10.37,2013-07-18 01:30:00,
2013-07-17 20:35:00,85.9,72.3,30.14,WSW,253,0.0,0.0,64,0.00,FEW,,0.00,5.0,WeatherDisplay:10.37,2013-07-18 01:35:00,
2013-07-17 20:40:00,85.5,72.4,30.14,WSW,253,0.0,0.0,65,0.00,FEW,,0.00,0.0,WeatherDisplay:10.37,2013-07-18 01:40:00,
2013-07-17 20:45:00,85.3,72.6,30.14,WSW,253,0.0,0.0,66,0.00,FEW,,0.00,0.0,WeatherDisplay:10.37,2013-07-18 01:45:00,
2013-07-17 20:50:00,85.1,72.5,30.14,WSW,253,0.0,0.0,66,0.00,FEW,,0.00,0.0,WeatherDisplay:10.37,2013-07-18 01:50:00,
2013-07-17 20:55:00,84.7,72.5,30.14,WSW,253,0.0,0.0,67,0.00,FEW,,0.00,0.0,WeatherDisplay:10.37,2013-07-18 01:55:00,
2013-07-17 21:00:00,84.5,72.8,30.14,WSW,253,0.0,0.0,68,0.00,FEW,,0.00,0.0,WeatherDisplay:10.37,2013-07-18 02:00:00,
2013-07-17 21:05:00,84.3,73.4,30.14,WSW,253,0.0,0.0,70,0.00,FEW,,0.00,0.0,WeatherDisplay:10.37,2013-07-18 02:05:00,
2013-07-17 21:10:00,84.0,73.6,30.14,WSW,253,0.0,0.0,71,0.00,FEW,,0.00,0.0,WeatherDisplay:10.37,2013-07-18 02:10:00,
2013-07-17 21:15:00,83.6,73.6,30.15,WSW,253,0.0,0.0,72,0.00,FEW,,0.00,0.0,WeatherDisplay:10.37,2013-07-18 02:15:00,
2013-07-17 21:20:00,83.4,73.8,30.15,WSW,253,0.0,0.0,73,0.00,FEW,,0.00,0.0,WeatherDisplay:10.37,2013-07-18 02:20:00,
2013-07-17 21:25:00,83.2,73.6,30.15,WSW,253,0.0,0.0,73,0.00,FEW,,0.00,0.0,WeatherDisplay:10.37,2013-07-18 02:25:00,
2013-07-17 21:30:00,83.0,73.9,30.15,WSW,253,0.0,0.0,74,0.00,FEW,,0.00,0.0,WeatherDisplay:10.37,2013-07-18 02:30:00,
2013-07-17 21:35:00,82.8,73.3,30.15,WSW,253,0.0,0.0,73,0.00,FEW,,0.00,0.0,WeatherDisplay:10.37,2013-07-18 02:35:00,
2013-07-17 21:40:00,82.8,73.3,30.15,WSW,253,0.0,0.0,73,0.00,FEW,,0.00,0.0,WeatherDisplay:10.37,2013-07-18 02:40:00,
2013-07-17 21:45:00,82.6,72.7,30.15,WSW,253,0.0,0.0,72,0.00,FEW,,0.00,0.0,WeatherDisplay:10.37,2013-07-18 02:45:00,
2013-07-17 21:50:00,82.4,72.9,30.15,WSW,253,0.0,0.0,73,0.00,FEW,,0.00,0.0,WeatherDisplay:10.37,2013-07-18 02:50:00,
2013-07-17 21:55:00,82.4,72.9,30.15,WSW,253,0.0,0.0,73,0.00,FEW,,0.00,0.0,WeatherDisplay:10.37,2013-07-18 02:55:00,
2013-07-17 22:00:00,82.2,73.1,30.15,WSW,253,0.0,0.0,74,0.00,FEW,,0.00,0.0,WeatherDisplay:10.37,2013-07-18 03:00:00,
2013-07-17 22:05:00,82.0,72.9,30.15,WSW,253,0.0,0.0,74,0.00,FEW,,0.00,0.0,WeatherDisplay:10.37,2013-07-18 03:05:00,
2013-07-17 22:10:00,81.8,73.1,30.15,WSW,253,0.0,0.0,75,0.00,FEW,,0.00,0.0,WeatherDisplay:10.37,2013-07-18 03:10:00,
2013-07-17 22:15:00,81.6,73.3,30.15,WSW,253,0.0,0.0,76,0.00,FEW,,0.00,0.0,WeatherDisplay:10.37,2013-07-18 03:15:00,
2013-07-17 22:20:00,81.4,73.1,30.15,WSW,253,0.0,0.0,76,0.00,FEW,,0.00,0.0,WeatherDisplay:10.37,2013-07-18 03:20:00,
2013-07-17 22:25:00,81.1,73.2,30.15,WSW,253,0.0,0.0,77,0.00,FEW,,0.00,0.0,WeatherDisplay:10.37,2013-07-18 03:25:00,
2013-07-17 22:30:00,80.7,73.2,30.15,WSW,253,0.0,0.0,78,0.00,FEW,,0.00,0.0,WeatherDisplay:10.37,2013-07-18 03:30:00,
2013-07-17 22:35:00,80.5,73.0,30.15,WSW,253,0.0,0.0,78,0.00,FEW,,0.00,0.0,WeatherDisplay:10.37,2013-07-18 03:35:00,
2013-07-17 22:40:00,80.3,72.8,30.15,WSW,253,0.0,0.0,78,0.00,FEW,,0.00,0.0,WeatherDisplay:10.37,2013-07-18 03:40:00,
2013-07-17 22:45:00,80.1,73.0,30.15,WSW,253,0.0,0.0,79,0.00,FEW,,0.00,0.0,WeatherDisplay:10.37,2013-07-18 03:45:00,
2013-07-17 22:50:00,79.9,73.2,30.15,WSW,253,0.0,0.0,80,0.00,FEW,,0.00,0.0,WeatherDisplay:10.37,2013-07-18 03:50:00,
2013-07-17 22:55:00,79.8,73.4,30.15,WSW,253,0.0,0.0,81,0.00,FEW,,0.00,0.0,WeatherDisplay:10.37,2013-07-18 03:55:00,
2013-07-17 23:00:00,79.6,73.3,30.15,WSW,253,0.0,0.0,81,0.00,FEW,,0.00,0.0,WeatherDisplay:10.37,2013-07-18 04:00:00,
2013-07-17 23:01:00,79.6,73.3,30.15,WSW,253,0.0,0.0,81,0.00,FEW,,0.00,0.0,WeatherDisplay:10.37,2013-07-18 04:01:00,
2013-07-17 23:02:00,79.6,73.3,30.15,WSW,253,0.0,0.0,81,0.00,FEW,,0.00,0.0,WeatherDisplay:10.37,2013-07-18 04:02:00,
2013-07-17 23:07:00,79.4,73.4,30.15,WSW,253,0.0,0.0,82,0.00,FEW,,0.00,0.0,WeatherDisplay:10.37,2013-07-18 04:07:00,
2013-07-17 23:12:00,79.4,73.4,30.15,WSW,253,0.0,0.0,82,0.00,FEW,,0.00,0.0,WeatherDisplay:10.37,2013-07-18 04:12:00,
2013-07-17 23:17:00,79.6,73.6,30.15,WSW,253,0.0,0.0,82,0.00,FEW,,0.00,0.0,WeatherDisplay:10.37,2013-07-18 04:17:00,
2013-07-17 23:22:00,79.4,73.8,30.15,WSW,253,0.0,0.0,83,0.00,FEW,,0.00,0.0,WeatherDisplay:10.37,2013-07-18 04:22:00,
2013-07-17 23:27:00,79.2,73.6,30.15,WSW,253,0.0,0.0,83,0.00,FEW,,0.00,0.0,WeatherDisplay:10.37,2013-07-18 04:27:00,
2013-07-17 23:32:00,79.2,72.9,30.14,WSW,253,0.0,0.0,81,0.00,FEW,,0.00,0.0,WeatherDisplay:10.37,2013-07-18 04:32:00,
2013-07-17 23:37:00,79.2,72.9,30.14,WSW,253,0.0,0.0,81,0.00,FEW,,0.00,0.0,WeatherDisplay:10.37,2013-07-18 04:37:00,
2013-07-17 23:42:00,79.4,72.7,30.14,WSW,253,0.0,0.0,80,0.00,FEW,,0.00,0.0,WeatherDisplay:10.37,2013-07-18 04:42:00,
2013-07-17 23:47:00,79.4,72.3,30.14,WSW,253,0.0,0.0,79,0.00,FEW,,0.00,0.0,WeatherDisplay:10.37,2013-07-18 04:47:00,
2013-07-17 23:52:00,79.6,72.5,30.14,WSW,253,0.0,0.0,79,0.00,FEW,,0.00,0.0,WeatherDisplay:10.37,2013-07-18 04:52:00,
2013-07-17 23:57:00,79.6,72.5,30.14,WSW,253,0.0,0.0,79,0.00,FEW,,0.00,0.0,WeatherDisplay:10.37,2013-07-18 04:57:00,